Terminal Aerodrome Forecast
Issued by NWS Charleston, WV

Current Version | Previous Version | Graphics & Text | Print | Product List | Glossary On
Versions: 1 2 3 4 5 6 7 8 9 10 11 12 13 14 15 16 17 18 19 20 21 22 23 24
000
FTUS41 KRLX 282300
TAFPKB
TAF
KPKB 282333Z 0100/0124 00000KT P6SM BKN080
     FM010700 00000KT 3SM BR OVC050
     FM010800 00000KT 1SM -SN BR SCT001 OVC040
     FM011500 17004KT 3SM -RASN BR OVC008
     FM011600 17004KT 5SM -RA BR OVC008=

USA.gov is the U.S. government's official web portal to all federal, state and local government web resources and services.